createdAt,value
2017-12-01T00:01:06.120Z,99123.45
2017-12-01T00:03:32.520Z,99117.48
2017-12-01T00:05:58.979Z,99126.33
2017-12-01T00:08:25.340Z,99147.66
2017-12-01T00:10:51.712Z,99146.09
2017-12-01T00:13:18.055Z,99144.37
2017-12-01T00:15:44.433Z,99128.97
2017-12-01T00:18:10.768Z,99124.77
2017-12-01T00:20:37.135Z,99133.27
2017-12-01T00:23:03.541Z,99132.69
2017-12-01T00:25:29.935Z,99145.19
2017-12-01T00:27:56.301Z,99139.38
2017-12-01T00:30:22.719Z,99150.89
2017-12-01T00:32:49.074Z,99154.81
2017-12-01T00:35:15.443Z,99146.52
2017-12-01T00:37:41.849Z,99130.28
2017-12-01T00:40:08.204Z,99125.59
2017-12-01T00:42:34.539Z,99127.84
2017-12-01T00:45:00.916Z,99125.74
2017-12-01T00:47:27.296Z,99122.58
2017-12-01T00:49:53.666Z,99119.55
2017-12-01T00:52:20.059Z,99121.33
2017-12-01T00:54:46.444Z,99121.25
2017-12-01T00:57:12.816Z,99103.77
2017-12-01T00:59:39.225Z,99097.44
2017-12-01T01:02:05.720Z,99101.97
2017-12-01T01:04:32.137Z,99094.66
2017-12-01T01:06:58.639Z,99096.27
2017-12-01T01:09:25.069Z,99091.17
2017-12-01T01:11:51.431Z,99098.70
2017-12-01T01:14:17.820Z,99105.06
2017-12-01T01:16:44.229Z,99087.41
2017-12-01T01:19:10.621Z,99095.34
2017-12-01T01:21:37.066Z,99073.25
2017-12-01T01:24:03.488Z,99080.77
2017-12-01T01:26:29.868Z,99079.75
2017-12-01T01:28:56.256Z,99094.52
2017-12-01T01:31:22.643Z,99089.08
2017-12-01T01:33:49.020Z,99090.23
2017-12-01T01:36:15.404Z,99110.73
2017-12-01T01:38:41.779Z,99124.16
2017-12-01T01:41:08.200Z,99125.33
2017-12-01T01:43:34.648Z,99113.79
2017-12-01T01:46:01.209Z,99122.95
2017-12-01T01:48:27.642Z,99113.77
2017-12-01T01:50:54.151Z,99096.02
2017-12-01T01:53:20.579Z,99100.80
2017-12-01T01:55:46.993Z,99090.59
2017-12-01T01:58:13.479Z,99087.54
2017-12-01T02:00:39.872Z,99094.98
2017-12-01T02:03:06.281Z,99090.95
2017-12-01T02:05:32.748Z,99099.52
2017-12-01T02:07:59.147Z,99094.56
2017-12-01T02:10:25.574Z,99084.03
2017-12-01T02:12:52.003Z,99079.33
2017-12-01T02:15:18.445Z,99082.09
2017-12-01T02:17:44.875Z,99076.14
2017-12-01T02:20:11.357Z,99069.20
2017-12-01T02:22:37.784Z,99052.30
2017-12-01T02:25:04.215Z,99053.57
2017-12-01T02:27:30.652Z,99048.95
2017-12-01T02:29:57.084Z,99055.94
2017-12-01T02:32:23.521Z,99044.83
2017-12-01T02:34:50.008Z,99046.70
2017-12-01T02:37:16.589Z,99048.14
2017-12-01T02:39:43.025Z,99048.06
2017-12-01T02:42:09.535Z,99053.50
2017-12-01T02:44:35.989Z,99055.93
2017-12-01T02:47:02.451Z,99055.12
2017-12-01T02:49:28.928Z,99051.46
2017-12-01T02:51:55.351Z,99044.44
2017-12-01T02:54:21.804Z,99059.89
2017-12-01T02:56:48.352Z,99058.00
2017-12-01T02:59:14.792Z,99059.68
2017-12-01T03:01:41.225Z,99046.62
2017-12-01T03:04:07.684Z,99055.25
2017-12-01T03:06:34.122Z,99055.34
2017-12-01T03:09:00.555Z,99057.65
2017-12-01T03:11:27.040Z,99060.41
2017-12-01T03:13:53.474Z,99056.27
2017-12-01T03:16:19.966Z,99054.36
2017-12-01T03:18:46.568Z,99046.78
2017-12-01T03:21:13.008Z,99047.27
2017-12-01T03:23:39.444Z,99056.71
2017-12-01T03:26:05.928Z,99045.02
2017-12-01T03:28:32.372Z,99039.20
2017-12-01T03:30:58.797Z,99047.67
2017-12-01T03:33:25.403Z,99039.80
2017-12-01T03:35:51.835Z,99047.02
2017-12-01T03:38:18.277Z,99048.30
2017-12-01T03:40:44.751Z,99040.60
2017-12-01T03:43:11.216Z,99038.53
2017-12-01T03:45:37.647Z,99045.39
2017-12-01T03:48:04.137Z,99040.06
2017-12-01T03:50:30.568Z,99051.43
2017-12-01T03:52:57.008Z,99040.49
2017-12-01T03:55:23.480Z,99060.30
2017-12-01T03:57:49.888Z,99056.34
2017-12-01T04:00:16.304Z,99068.07
2017-12-01T04:02:42.780Z,99056.56
2017-12-01T04:05:09.176Z,99065.54
2017-12-01T04:07:35.576Z,99064.56
2017-12-01T04:10:02.061Z,99065.23
2017-12-01T04:12:28.672Z,99062.55
2017-12-01T04:14:55.134Z,99050.80
2017-12-01T04:17:21.643Z,99047.36
2017-12-01T04:19:48.076Z,99046.09
2017-12-01T04:22:14.561Z,99047.80
2017-12-01T04:24:41.036Z,99044.94
2017-12-01T04:27:07.476Z,99036.73
2017-12-01T04:29:33.985Z,99035.85
2017-12-01T04:32:00.452Z,99008.09
2017-12-01T04:34:26.888Z,99015.05
2017-12-01T04:36:53.320Z,99030.66
2017-12-01T04:39:19.757Z,99034.31
2017-12-01T04:41:46.252Z,99030.68
2017-12-01T04:44:12.789Z,99025.56
2017-12-01T04:46:39.426Z,99029.94
2017-12-01T04:49:05.880Z,99025.67
2017-12-01T04:51:33.400Z,99027.91
2017-12-01T04:54:01.249Z,99023.80
2017-12-01T04:56:28.119Z,99033.17
2017-12-01T04:58:55.471Z,99038.66
2017-12-01T05:01:22.950Z,99035.27
2017-12-01T05:03:50.211Z,99033.56
2017-12-01T05:06:17.735Z,99040.39
2017-12-01T05:08:44.958Z,99033.55
2017-12-01T05:11:12.375Z,99048.41
2017-12-01T05:13:39.494Z,99033.83
2017-12-01T05:16:06.408Z,99036.23
2017-12-01T05:18:32.993Z,99039.80
2017-12-01T05:20:59.452Z,99039.93
2017-12-01T05:23:25.996Z,99046.48
2017-12-01T05:25:52.441Z,99051.22
2017-12-01T05:28:22.691Z,99056.95
2017-12-01T05:30:49.128Z,99058.61
2017-12-01T05:33:15.571Z,99073.89
2017-12-01T05:35:42.049Z,99065.14
2017-12-01T05:38:08.520Z,99061.06
2017-12-01T05:40:34.959Z,99057.83
2017-12-01T05:43:01.401Z,99078.69
2017-12-01T05:45:27.872Z,99064.02
2017-12-01T05:47:54.315Z,99052.11
2017-12-01T05:50:20.751Z,99048.39
2017-12-01T05:52:47.243Z,99060.61
2017-12-01T05:55:13.724Z,99073.56
2017-12-01T05:57:40.172Z,99075.36
2017-12-01T06:00:06.662Z,99077.64
2017-12-01T06:02:33.195Z,99075.63
2017-12-01T06:04:59.684Z,99070.71
2017-12-01T06:07:26.180Z,99086.48
2017-12-01T06:09:52.648Z,99081.75
2017-12-01T06:12:19.107Z,99082.03
2017-12-01T06:14:45.583Z,99073.66
2017-12-01T06:17:12.016Z,99085.30
2017-12-01T06:19:38.460Z,99081.73
2017-12-01T06:22:04.971Z,99074.83
2017-12-01T06:24:31.402Z,99065.85
2017-12-01T06:26:57.859Z,99065.59
2017-12-01T06:29:24.434Z,99069.44
2017-12-01T06:31:50.861Z,99076.91
2017-12-01T06:34:17.318Z,99067.64
2017-12-01T06:36:43.806Z,99061.27
2017-12-01T06:39:10.232Z,99064.88
2017-12-01T06:41:36.797Z,99074.61
2017-12-01T06:44:03.333Z,99076.88
2017-12-01T06:46:29.801Z,99074.92
2017-12-01T06:48:56.232Z,99056.07
2017-12-01T06:51:22.743Z,99065.55
2017-12-01T06:53:49.161Z,99067.23
2017-12-01T06:56:15.593Z,99084.16
2017-12-01T06:58:42.116Z,99086.14
2017-12-01T07:01:08.545Z,99102.49
2017-12-01T07:03:35.108Z,99112.20
2017-12-01T07:06:01.797Z,99115.34
2017-12-01T07:08:28.228Z,99122.86
2017-12-01T07:10:54.580Z,99118.84
2017-12-01T07:13:20.966Z,99135.83
2017-12-01T07:15:47.424Z,99135.99
2017-12-01T07:18:15.210Z,99137.88
2017-12-01T07:20:41.956Z,99138.55
2017-12-01T07:23:08.316Z,99144.61
2017-12-01T07:25:34.695Z,99141.55
2017-12-01T07:28:01.136Z,99150.88
2017-12-01T07:30:27.509Z,99150.88
2017-12-01T07:32:53.868Z,99145.70
2017-12-01T07:35:20.323Z,99146.23
2017-12-01T07:37:46.777Z,99143.41
2017-12-01T07:40:13.170Z,99145.17
2017-12-01T07:42:39.632Z,99139.26
2017-12-01T07:58:23.203Z,99136.31
2017-12-01T08:00:49.638Z,99123.71
2017-12-01T08:03:16.093Z,99117.69
2017-12-01T08:05:42.654Z,99114.41
2017-12-01T08:08:09.032Z,99112.34
2017-12-01T08:10:35.657Z,99129.17
2017-12-01T08:13:02.217Z,99140.36
2017-12-01T08:15:28.797Z,99143.05
2017-12-01T08:31:24.511Z,99161.45
2017-12-01T08:33:50.864Z,99161.84
2017-12-01T08:36:17.240Z,99165.14
2017-12-01T08:38:43.629Z,99170.81
2017-12-01T08:41:10.077Z,99162.72
2017-12-01T08:43:37.098Z,99181.59
2017-12-01T08:46:03.658Z,99196.61
2017-12-01T08:48:30.104Z,99194.73
2017-12-01T08:50:56.581Z,99200.53
2017-12-01T08:53:23.051Z,99189.06
2017-12-01T08:55:49.453Z,99182.50
2017-12-01T08:58:15.989Z,99182.01
2017-12-01T09:00:42.600Z,99177.16
2017-12-01T09:03:09.082Z,99180.23
2017-12-01T09:05:35.733Z,99189.30
2017-12-01T09:08:02.108Z,99185.69
2017-12-01T09:10:28.541Z,99184.18
2017-12-01T09:12:54.935Z,99178.03
2017-12-01T09:15:21.399Z,99179.65
2017-12-01T09:17:47.897Z,99186.02
2017-12-01T09:20:14.352Z,99183.28
2017-12-01T09:22:40.821Z,99175.94
2017-12-01T09:25:07.189Z,99172.44
2017-12-01T09:27:33.580Z,99169.69
2017-12-01T09:30:00.017Z,99156.79
2017-12-01T09:32:26.466Z,99154.03
2017-12-01T09:34:52.908Z,99156.31
2017-12-01T09:37:19.340Z,99143.66
2017-12-01T09:39:45.768Z,99148.71
2017-12-01T09:42:12.217Z,99148.66
2017-12-01T09:44:38.888Z,99142.13
2017-12-01T09:47:05.349Z,99148.98
2017-12-01T09:49:31.732Z,99146.14
2017-12-01T09:51:58.477Z,99136.21
2017-12-01T09:54:25.595Z,99143.41
2017-12-01T09:56:52.556Z,99149.46
2017-12-01T09:59:19.043Z,99140.45
2017-12-01T10:01:45.591Z,99129.65
2017-12-01T10:04:12.046Z,99129.63
2017-12-01T10:06:38.581Z,99135.89
2017-12-01T10:09:05.015Z,99131.34
2017-12-01T10:11:31.492Z,99131.59
2017-12-01T10:13:58.047Z,99107.14
2017-12-01T10:16:24.564Z,99108.00
2017-12-01T10:18:50.932Z,99104.74
2017-12-01T10:21:17.468Z,99096.22
2017-12-01T10:23:43.924Z,99102.04
2017-12-01T10:26:10.342Z,99109.86
2017-12-01T10:28:36.814Z,99099.48
2017-12-01T10:31:03.196Z,99108.08
2017-12-01T10:33:29.552Z,99123.13
2017-12-01T10:35:55.917Z,99106.44
2017-12-01T10:38:22.325Z,99104.51
2017-12-01T10:40:48.793Z,99110.85
2017-12-01T10:43:15.464Z,99129.17
2017-12-01T10:45:41.799Z,99119.59
2017-12-01T10:48:08.129Z,99109.31
2017-12-01T10:50:34.524Z,99119.26
2017-12-01T10:53:00.940Z,99124.74
2017-12-01T10:55:27.287Z,99117.56
2017-12-01T11:10:35.249Z,99128.44
2017-12-01T11:13:02.528Z,99133.31
2017-12-01T11:15:29.151Z,99128.34
2017-12-01T11:17:55.569Z,99115.59
2017-12-01T11:20:21.956Z,99139.75
2017-12-01T11:22:48.301Z,99118.63
2017-12-01T11:25:14.657Z,99122.61
2017-12-01T11:27:41.009Z,99125.63
2017-12-01T11:30:07.522Z,99134.97
2017-12-01T11:32:34.196Z,99144.78
2017-12-01T11:35:00.559Z,99145.11
2017-12-01T11:37:30.205Z,99149.08
2017-12-01T11:39:56.569Z,99150.49
2017-12-01T11:42:22.898Z,99144.52
2017-12-01T11:44:49.294Z,99147.63
2017-12-01T11:47:15.685Z,99136.14
2017-12-01T11:49:42.056Z,99141.55
2017-12-01T11:52:08.423Z,99147.46
2017-12-01T11:54:34.944Z,99151.79
2017-12-01T11:57:01.366Z,99153.05
2017-12-01T11:59:27.767Z,99152.80
2017-12-01T12:01:54.252Z,99150.75
2017-12-01T12:04:20.664Z,99142.92
2017-12-01T12:06:47.205Z,99139.00
2017-12-01T12:09:13.736Z,99134.78
2017-12-01T12:11:40.196Z,99131.30
2017-12-01T12:14:06.638Z,99133.16
2017-12-01T12:16:33.157Z,99118.31
2017-12-01T12:19:00.574Z,99122.44
2017-12-01T12:21:27.022Z,99122.46
2017-12-01T12:23:53.469Z,99117.93
2017-12-01T12:26:19.893Z,99122.44
2017-12-01T12:28:46.301Z,99124.17
2017-12-01T12:31:12.780Z,99124.59
2017-12-01T12:33:39.181Z,99105.78
2017-12-01T12:36:05.641Z,99112.37
2017-12-01T12:38:32.084Z,99106.70
2017-12-01T12:40:58.532Z,99112.33
2017-12-01T12:43:25.113Z,99114.09
2017-12-01T12:45:51.676Z,99111.63
2017-12-01T12:48:18.084Z,99113.74
2017-12-01T12:50:44.599Z,99109.34
2017-12-01T12:53:11.071Z,99118.72
2017-12-01T12:55:37.593Z,99122.19
2017-12-01T12:58:04.049Z,99124.56
2017-12-01T13:00:30.547Z,99123.96
2017-12-01T13:02:56.995Z,99114.06
2017-12-01T13:05:23.424Z,99117.13
2017-12-01T13:07:50.056Z,99124.41
2017-12-01T13:10:16.489Z,99123.80
2017-12-01T13:12:42.880Z,99114.17
2017-12-01T13:15:09.356Z,99125.48
2017-12-01T13:17:35.836Z,99137.70
2017-12-01T13:20:02.320Z,99142.93
2017-12-01T13:22:28.793Z,99129.25
2017-12-01T13:24:55.225Z,99120.61
2017-12-01T13:27:21.653Z,99126.97
2017-12-01T13:29:48.188Z,99125.11
2017-12-01T13:32:14.591Z,99139.09
2017-12-01T13:34:41.033Z,99142.97
2017-12-01T13:37:07.512Z,99144.90
2017-12-01T13:39:33.920Z,99149.13
2017-12-01T13:42:00.356Z,99161.23
2017-12-01T13:44:26.944Z,99156.77
2017-12-01T13:46:53.450Z,99153.91
2017-12-01T13:49:20.045Z,99154.02
2017-12-01T13:51:46.813Z,99140.81
2017-12-01T13:54:13.644Z,99134.47
2017-12-01T13:56:40.106Z,99123.63
2017-12-01T13:59:06.592Z,99136.14
2017-12-01T14:01:33.562Z,99133.95
2017-12-01T14:04:00.393Z,99137.11
2017-12-01T14:06:26.784Z,99143.47
2017-12-01T14:08:53.167Z,99131.34
2017-12-01T14:11:19.587Z,99136.47
2017-12-01T14:13:47.670Z,99130.35
2017-12-01T14:16:14.488Z,99135.73
2017-12-01T14:18:41.178Z,99132.93
2017-12-01T14:21:07.795Z,99133.57
2017-12-01T14:23:34.226Z,99143.20
2017-12-01T14:26:00.559Z,99140.98
2017-12-01T14:28:27.400Z,99135.20
2017-12-01T14:30:53.787Z,99149.62
2017-12-01T14:33:20.132Z,99133.92
2017-12-01T14:35:46.708Z,99136.67
2017-12-01T14:38:13.065Z,99147.95
2017-12-01T14:40:39.413Z,99143.25
2017-12-01T14:43:05.797Z,99122.22
2017-12-01T14:45:32.498Z,99136.72
2017-12-01T14:48:00.078Z,99135.06
2017-12-01T14:50:26.509Z,99123.26
2017-12-01T14:52:53.085Z,99132.22
2017-12-01T14:55:23.711Z,99126.39
2017-12-01T14:57:50.208Z,99130.52
2017-12-01T15:00:16.573Z,99133.51
2017-12-01T15:02:42.920Z,99128.05
2017-12-01T15:05:09.418Z,99129.64
2017-12-01T15:07:36.145Z,99132.73
2017-12-01T15:10:02.477Z,99147.84
2017-12-01T15:12:28.840Z,99155.70
2017-12-01T15:14:55.179Z,99156.89
2017-12-01T15:17:21.506Z,99154.91
2017-12-01T15:19:47.864Z,99163.15
2017-12-01T15:22:14.189Z,99173.89
2017-12-01T15:24:40.526Z,99176.86
2017-12-01T15:27:06.896Z,99166.48
2017-12-01T15:29:33.212Z,99168.59
2017-12-01T15:31:59.599Z,99166.80
2017-12-01T15:34:26.075Z,99163.06
2017-12-01T15:36:52.437Z,99165.19
2017-12-01T15:39:18.782Z,99163.09
2017-12-01T15:41:45.374Z,99159.06
2017-12-01T15:44:11.777Z,99167.44
2017-12-01T15:46:38.110Z,99159.67
2017-12-01T15:49:04.718Z,99159.33
2017-12-01T15:51:31.196Z,99161.45
2017-12-01T15:53:57.588Z,99181.77
2017-12-01T15:56:24.037Z,99179.36
2017-12-01T15:58:50.661Z,99166.52
2017-12-01T16:01:17.071Z,99164.52
2017-12-01T16:03:43.628Z,99171.81
2017-12-01T16:06:10.032Z,99174.23
2017-12-01T16:08:36.440Z,99164.72
2017-12-01T16:11:02.932Z,99183.62
2017-12-01T16:13:29.468Z,99168.69
2017-12-01T16:15:55.905Z,99165.28
2017-12-01T16:18:22.350Z,99173.72
2017-12-01T16:20:48.762Z,99163.67
2017-12-01T16:23:15.195Z,99163.06
2017-12-01T16:25:41.683Z,99169.84
2017-12-01T16:28:08.120Z,99170.88
2017-12-01T16:30:34.550Z,99171.12
2017-12-01T16:33:08.442Z,99176.66
2017-12-01T16:35:27.498Z,99176.95
2017-12-01T16:37:54.241Z,99192.81
2017-12-01T16:40:20.857Z,99201.82
2017-12-01T16:42:47.278Z,99195.56
2017-12-01T16:45:13.721Z,99196.04
2017-12-01T16:47:40.165Z,99201.69
2017-12-01T16:50:06.579Z,99190.88
2017-12-01T16:52:33.158Z,99189.31
2017-12-01T16:54:59.752Z,99179.78
2017-12-01T16:57:26.167Z,99187.61
2017-12-01T16:59:52.608Z,99186.09
2017-12-01T17:02:19.079Z,99189.27
2017-12-01T17:04:45.540Z,99191.58
2017-12-01T17:07:12.039Z,99186.61
2017-12-01T17:09:38.569Z,99195.09
2017-12-01T17:12:05.030Z,99181.39
2017-12-01T17:14:31.485Z,99171.20
2017-12-01T17:16:58.066Z,99172.68
2017-12-01T17:19:24.467Z,99176.03
2017-12-01T17:21:50.909Z,99179.55
2017-12-01T17:24:17.439Z,99183.34
2017-12-01T17:26:43.829Z,99184.80
2017-12-01T17:29:10.331Z,99196.19
2017-12-01T17:31:36.806Z,99191.92
2017-12-01T17:34:03.540Z,99189.35
2017-12-01T17:36:30.124Z,99186.80
2017-12-01T17:38:56.612Z,99193.29
2017-12-01T17:41:23.116Z,99199.36
2017-12-01T17:43:50.023Z,99185.77
2017-12-01T17:46:16.535Z,99186.61
2017-12-01T17:48:43.183Z,99184.42
2017-12-01T17:51:09.616Z,99183.25
2017-12-01T17:53:36.072Z,99177.60
2017-12-01T17:56:02.531Z,99175.72
2017-12-01T17:58:29.004Z,99166.52
2017-12-01T18:00:55.810Z,99181.59
2017-12-01T18:03:22.344Z,99170.73
2017-12-01T18:05:50.227Z,99149.55
2017-12-01T18:08:18.096Z,99153.30
2017-12-01T18:10:45.151Z,99160.47
2017-12-01T18:13:12.175Z,99173.30
2017-12-01T18:15:39.188Z,99177.95
2017-12-01T18:18:06.520Z,99178.37
2017-12-01T18:20:34.112Z,99183.63
2017-12-01T18:23:01.975Z,99172.25
2017-12-01T18:25:35.810Z,99168.75
2017-12-01T18:28:03.921Z,99166.94
2017-12-01T18:30:34.733Z,99157.98
2017-12-01T18:33:02.928Z,99167.42
2017-12-01T18:35:36.981Z,99147.20
2017-12-01T18:38:04.337Z,99136.89
2017-12-01T18:40:31.679Z,99144.50
2017-12-01T18:43:00.469Z,99134.02
2017-12-01T18:45:30.586Z,99126.97
2017-12-01T18:48:00.910Z,99121.38
2017-12-01T18:50:30.587Z,99114.98
2017-12-01T18:53:00.270Z,99126.67
2017-12-01T18:55:28.898Z,99135.30
2017-12-01T18:57:58.651Z,99137.09
2017-12-01T19:00:27.408Z,99142.45
2017-12-01T19:02:56.492Z,99141.41
2017-12-01T19:05:23.571Z,99145.63
2017-12-01T19:07:50.904Z,99155.83
2017-12-01T19:10:19.776Z,99161.79
2017-12-01T19:12:47.633Z,99146.38
2017-12-01T19:15:16.524Z,99152.93
2017-12-01T19:17:45.841Z,99149.98
2017-12-01T19:20:15.262Z,99154.44
2017-12-01T19:22:42.256Z,99157.86
2017-12-01T19:25:09.013Z,99157.14
2017-12-01T19:27:38.621Z,99161.89
2017-12-01T19:30:05.524Z,99162.34
2017-12-01T19:32:32.315Z,99162.08
2017-12-01T19:34:59.640Z,99166.77
2017-12-01T19:37:26.428Z,99172.77
2017-12-01T19:39:53.479Z,99168.55
2017-12-01T19:42:20.396Z,99163.63
2017-12-01T19:44:47.051Z,99158.60
2017-12-01T19:47:13.689Z,99146.38
2017-12-01T19:49:40.202Z,99136.63
2017-12-01T19:52:06.749Z,99137.48
2017-12-01T19:54:33.237Z,99141.84
2017-12-01T19:56:59.978Z,99132.18
2017-12-01T19:59:27.146Z,99126.70
2017-12-01T20:01:55.449Z,99124.52
2017-12-01T20:04:22.162Z,99118.16
2017-12-01T20:06:48.579Z,99123.77
2017-12-01T20:09:15.220Z,99119.65
2017-12-01T20:11:41.703Z,99116.98
2017-12-01T20:14:08.177Z,99128.42
2017-12-01T20:16:35.515Z,99127.09
2017-12-01T20:19:01.976Z,99123.53
2017-12-01T20:21:28.510Z,99128.65
2017-12-01T20:23:55.398Z,99115.38
2017-12-01T20:26:22.090Z,99121.16
2017-12-01T20:28:48.576Z,99128.20
2017-12-01T20:31:15.223Z,99125.75
2017-12-01T20:33:41.927Z,99131.58
2017-12-01T20:36:08.437Z,99136.23
2017-12-01T20:38:35.076Z,99138.64
2017-12-01T20:41:01.492Z,99129.69
2017-12-01T20:43:27.956Z,99137.94
2017-12-01T20:45:54.444Z,99139.55
2017-12-01T20:48:20.990Z,99136.52
2017-12-01T20:50:47.415Z,99129.63
2017-12-01T20:53:13.865Z,99128.05
2017-12-01T20:55:40.330Z,99144.80
2017-12-01T20:58:06.748Z,99130.48
2017-12-01T21:00:33.202Z,99131.81
2017-12-01T21:02:59.625Z,99150.66
2017-12-01T21:05:26.057Z,99139.98
2017-12-01T21:07:52.524Z,99156.42
2017-12-01T21:10:18.905Z,99150.66
2017-12-01T21:12:45.369Z,99143.66
2017-12-01T21:15:11.809Z,99132.28
2017-12-01T21:17:38.213Z,99132.44
2017-12-01T21:20:04.627Z,99130.21
2017-12-01T21:22:31.135Z,99125.86
2017-12-01T21:24:57.519Z,99127.44
2017-12-01T21:27:23.928Z,99121.23
2017-12-01T21:29:50.368Z,99115.17
2017-12-01T21:32:16.845Z,99109.95
2017-12-01T21:34:43.277Z,99110.13
2017-12-01T21:37:09.737Z,99119.64
2017-12-01T21:39:36.164Z,99111.61
2017-12-01T21:42:02.573Z,99106.16
2017-12-01T21:44:28.977Z,99107.06
2017-12-01T21:46:55.372Z,99120.67
2017-12-01T21:49:21.716Z,99105.40
2017-12-01T21:51:48.156Z,99105.26
2017-12-01T21:54:14.501Z,99106.27
2017-12-01T21:56:40.880Z,99107.28
2017-12-01T21:59:07.296Z,99097.59
2017-12-01T22:01:33.612Z,99098.94
2017-12-01T22:03:59.995Z,99089.06
2017-12-01T22:06:26.393Z,99095.46
2017-12-01T22:08:52.721Z,99093.95
2017-12-01T22:11:19.157Z,99102.48
2017-12-01T22:13:45.564Z,99080.96
2017-12-01T22:16:11.956Z,99082.16
2017-12-01T22:18:38.364Z,99073.49
2017-12-01T22:21:04.786Z,99072.33
2017-12-01T22:23:31.160Z,99074.60
2017-12-01T22:25:57.520Z,99071.77
2017-12-01T22:28:23.940Z,99068.08
2017-12-01T22:30:50.301Z,99078.02
2017-12-01T22:33:16.696Z,99084.47
2017-12-01T22:35:43.148Z,99084.94
2017-12-01T22:38:09.511Z,99074.92
2017-12-01T22:40:35.843Z,99091.23
2017-12-01T22:43:02.256Z,99087.34
2017-12-01T22:45:28.608Z,99093.72
2017-12-01T22:47:55.015Z,99102.16
2017-12-01T22:50:21.582Z,99100.84
2017-12-01T22:52:47.988Z,99120.03
2017-12-01T22:55:14.338Z,99112.50
2017-12-01T22:57:40.744Z,99091.58
2017-12-01T23:00:07.130Z,99101.95
2017-12-01T23:02:33.561Z,99110.41
2017-12-01T23:04:59.954Z,99092.98
2017-12-01T23:07:26.510Z,99099.39
2017-12-01T23:09:52.861Z,99098.36
2017-12-01T23:12:19.260Z,99088.04
2017-12-01T23:14:45.592Z,99090.78
2017-12-01T23:17:12.037Z,99085.58
2017-12-01T23:19:38.397Z,99094.66
2017-12-01T23:22:04.732Z,99084.83
2017-12-01T23:24:31.066Z,99086.66
2017-12-01T23:26:57.411Z,99089.69
2017-12-01T23:29:23.732Z,99083.85
2017-12-01T23:31:50.100Z,99087.27
2017-12-01T23:34:16.465Z,99083.27
2017-12-01T23:36:42.812Z,99094.62
2017-12-01T23:39:09.149Z,99083.53
2017-12-01T23:41:35.580Z,99093.73
2017-12-01T23:44:01.949Z,99087.55
2017-12-01T23:46:28.422Z,99089.98
2017-12-01T23:48:54.827Z,99089.39
2017-12-01T23:51:21.160Z,99089.17
2017-12-01T23:53:47.492Z,99089.88
2017-12-01T23:56:13.928Z,99093.86
2017-12-01T23:58:40.278Z,99083.42
